createdAt,value
2022-08-19T00:01:52.923Z,13.50
2022-08-19T00:04:24.352Z,12.77
2022-08-19T00:06:52.676Z,14.40
2022-08-19T00:09:23.016Z,14.57
2022-08-19T00:11:52.042Z,13.20
2022-08-19T00:14:21.779Z,14.23
2022-08-19T00:16:52.534Z,13.13
2022-08-19T00:19:20.730Z,14.80
2022-08-19T00:21:49.116Z,13.60
2022-08-19T00:24:17.909Z,13.77
2022-08-19T00:26:46.774Z,13.20
2022-08-19T00:29:17.955Z,13.93
2022-08-19T00:31:47.031Z,13.20
2022-08-19T00:34:17.662Z,13.63
2022-08-19T00:36:45.918Z,13.50
2022-08-19T00:39:14.895Z,13.30
2022-08-19T00:41:43.259Z,14.70
2022-08-19T00:44:13.625Z,16.60
2022-08-19T00:46:44.770Z,14.73
2022-08-19T00:49:29.953Z,15.90
2022-08-19T00:52:02.648Z,15.57
2022-08-19T00:54:32.484Z,15.73
2022-08-19T00:57:01.545Z,16.50
2022-08-19T00:59:56.468Z,15.63
2022-08-19T01:02:19.624Z,15.70
2022-08-19T01:04:50.356Z,16.10
2022-08-19T01:07:19.549Z,15.27
2022-08-19T01:09:48.302Z,15.93
2022-08-19T01:12:17.244Z,18.47
2022-08-19T01:14:45.606Z,15.77
2022-08-19T01:17:14.577Z,17.60
2022-08-19T01:19:45.116Z,17.03
2022-08-19T01:22:27.717Z,17.00
2022-08-19T01:25:00.040Z,17.80
2022-08-19T01:27:30.806Z,17.03
2022-08-19T01:30:13.438Z,18.07
2022-08-19T01:32:41.613Z,18.77
2022-08-19T01:35:10.343Z,17.57
2022-08-19T01:37:46.223Z,18.10
2022-08-19T01:40:17.980Z,19.50
2022-08-19T01:42:46.220Z,20.07
2022-08-19T01:45:14.434Z,20.47
2022-08-19T01:47:42.775Z,20.47
2022-08-19T01:50:20.224Z,20.00
2022-08-19T01:52:50.255Z,17.90
2022-08-19T01:55:33.644Z,20.30
2022-08-19T01:58:07.249Z,22.33
2022-08-19T02:00:35.619Z,20.67
2022-08-19T02:03:03.755Z,22.83
2022-08-19T02:05:32.883Z,20.90
2022-08-19T02:08:01.064Z,23.73
2022-08-19T02:10:29.196Z,21.97
2022-08-19T02:12:58.695Z,21.50
2022-08-19T02:15:27.636Z,23.37
2022-08-19T02:17:55.779Z,21.20
2022-08-19T02:20:23.912Z,23.50
2022-08-19T02:22:53.646Z,23.40
2022-08-19T02:25:22.048Z,20.20
2022-08-19T02:27:50.188Z,20.30
2022-08-19T02:30:20.808Z,23.37
2022-08-19T02:32:48.959Z,22.47
2022-08-19T02:35:17.148Z,24.67
2022-08-19T02:38:03.172Z,23.33
2022-08-19T02:40:34.868Z,22.00
2022-08-19T02:43:03.360Z,21.90
2022-08-19T02:45:36.756Z,24.70
2022-08-19T02:48:12.763Z,25.60
2022-08-19T02:50:55.777Z,22.37
2022-08-19T02:53:25.219Z,23.50
2022-08-19T02:55:53.947Z,22.70
2022-08-19T02:58:23.398Z,19.93
2022-08-19T03:00:56.981Z,23.17
2022-08-19T03:03:25.603Z,22.70
2022-08-19T03:05:56.717Z,22.43
2022-08-19T03:08:26.635Z,23.33
2022-08-19T03:10:55.151Z,23.47
2022-08-19T03:13:25.041Z,24.60
2022-08-19T03:15:54.811Z,24.37
2022-08-19T03:18:23.393Z,24.67
2022-08-19T03:20:55.572Z,23.37
2022-08-19T03:23:24.207Z,24.00
2022-08-19T03:26:05.622Z,23.37
2022-08-19T03:28:47.698Z,25.77
2022-08-19T03:31:41.562Z,24.00
2022-08-19T03:34:13.428Z,23.97
2022-08-19T03:36:42.353Z,24.40
2022-08-19T03:39:11.843Z,25.23
2022-08-19T03:41:45.535Z,24.47
2022-08-19T03:44:17.973Z,24.67
2022-08-19T03:46:49.051Z,23.57
2022-08-19T03:49:18.563Z,26.50
2022-08-19T03:51:48.110Z,24.47
2022-08-19T03:54:18.279Z,23.67
2022-08-19T03:56:48.796Z,24.60
2022-08-19T03:59:19.712Z,24.77
2022-08-19T04:01:49.675Z,23.60
2022-08-19T04:04:17.814Z,25.50
2022-08-19T04:06:48.895Z,25.10
2022-08-19T04:09:17.650Z,25.67
2022-08-19T04:11:49.218Z,27.30
2022-08-19T04:14:19.715Z,25.80
2022-08-19T04:16:50.362Z,24.80
2022-08-19T04:19:20.440Z,24.60
2022-08-19T04:21:51.943Z,23.80
2022-08-19T04:24:21.048Z,22.50
2022-08-19T04:26:49.846Z,23.70
2022-08-19T04:29:23.045Z,25.57
2022-08-19T04:31:54.543Z,25.37
2022-08-19T04:34:25.131Z,27.70
2022-08-19T04:36:55.071Z,24.13
2022-08-19T04:39:45.103Z,27.03
2022-08-19T04:42:31.209Z,27.80
2022-08-19T04:44:59.802Z,27.37
2022-08-19T04:47:47.909Z,26.20
2022-08-19T04:50:18.732Z,27.73
2022-08-19T04:52:47.131Z,26.10
2022-08-19T04:55:15.513Z,26.47
2022-08-19T04:57:43.672Z,25.00
2022-08-19T05:00:13.053Z,26.73
2022-08-19T05:02:42.630Z,23.93
2022-08-19T05:05:11.397Z,26.27
2022-08-19T05:07:42.073Z,28.47
2022-08-19T05:10:10.879Z,25.60
2022-08-19T05:12:39.315Z,26.77
2022-08-19T05:15:09.594Z,28.17
2022-08-19T05:17:39.150Z,25.33
2022-08-19T05:20:28.206Z,27.33
2022-08-19T05:22:56.739Z,24.53
2022-08-19T05:25:26.279Z,25.87
2022-08-19T05:27:54.417Z,24.70
2022-08-19T05:30:33.639Z,25.67
2022-08-19T05:33:12.305Z,26.00
2022-08-19T05:35:42.129Z,24.33
2022-08-19T05:38:11.928Z,25.90
2022-08-19T05:40:41.103Z,27.87
2022-08-19T05:43:10.179Z,28.07
2022-08-19T05:45:43.037Z,24.60
2022-08-19T05:48:12.400Z,26.17
2022-08-19T05:50:43.529Z,28.40
2022-08-19T05:53:11.749Z,25.27
2022-08-19T05:55:40.735Z,28.10
2022-08-19T05:58:09.227Z,27.50
2022-08-19T06:00:38.088Z,27.27
2022-08-19T06:03:12.794Z,28.40
2022-08-19T06:05:52.107Z,27.27
2022-08-19T06:08:34.636Z,29.17
2022-08-19T06:11:18.907Z,28.63
2022-08-19T06:13:51.876Z,29.83
2022-08-19T06:16:28.989Z,28.50
2022-08-19T06:18:58.940Z,26.90
2022-08-19T06:21:30.500Z,32.23
2022-08-19T06:24:00.120Z,27.40
2022-08-19T06:26:29.140Z,29.23
2022-08-19T06:28:57.494Z,29.00
2022-08-19T06:31:28.882Z,30.87
2022-08-19T06:33:57.420Z,29.40
2022-08-19T06:36:32.813Z,28.03
2022-08-19T06:39:02.468Z,28.40
2022-08-19T06:41:31.864Z,26.27
2022-08-19T06:44:00.240Z,26.93
2022-08-19T06:46:29.736Z,25.20
2022-08-19T06:49:02.677Z,23.30
2022-08-19T06:54:03.131Z,20.97
2022-08-19T06:56:35.612Z,18.90
2022-08-19T06:59:05.774Z,17.77
2022-08-19T07:01:38.517Z,16.80
2022-08-19T07:04:08.114Z,15.53
2022-08-19T07:06:44.377Z,14.93
2022-08-19T07:09:14.955Z,13.80
2022-08-19T07:11:48.256Z,13.20
2022-08-19T07:14:19.878Z,12.00
2022-08-19T07:16:49.922Z,12.77
2022-08-19T07:19:19.299Z,10.60
2022-08-19T07:21:49.913Z,11.17
2022-08-19T07:24:19.675Z,11.83
2022-08-19T07:26:51.787Z,10.40
2022-08-19T07:29:21.432Z,12.33
2022-08-19T07:31:53.142Z,10.93
2022-08-19T07:34:22.463Z,10.33
2022-08-19T07:36:53.283Z,11.33
2022-08-19T07:39:28.015Z,10.73
2022-08-19T07:41:57.298Z,9.20
2022-08-19T07:44:25.890Z,8.70
2022-08-19T07:46:57.787Z,8.23
2022-08-19T07:49:26.591Z,6.30
2022-08-19T07:51:57.942Z,6.60
2022-08-19T07:54:29.211Z,6.93
2022-08-19T07:56:57.919Z,6.40
2022-08-19T07:59:26.076Z,5.97
2022-08-19T08:01:54.886Z,5.70
2022-08-19T08:04:41.045Z,4.90
2022-08-19T08:07:31.450Z,5.20
2022-08-19T08:10:03.075Z,4.50
2022-08-19T08:12:35.292Z,4.37
2022-08-19T08:15:12.445Z,4.50
2022-08-19T08:17:49.327Z,4.57
2022-08-19T08:20:20.556Z,4.10
2022-08-19T08:23:07.681Z,4.60
2022-08-19T08:25:38.364Z,4.50
2022-08-19T08:28:09.652Z,3.60
2022-08-19T08:30:45.132Z,3.80
2022-08-19T08:33:13.911Z,3.70
2022-08-19T08:35:43.866Z,3.77
2022-08-19T08:38:13.867Z,3.60
2022-08-19T08:40:46.788Z,3.83
2022-08-19T08:43:23.876Z,4.40
2022-08-19T08:45:57.432Z,4.47
2022-08-19T08:48:34.400Z,4.60
2022-08-19T08:51:07.048Z,4.80
2022-08-19T08:53:41.851Z,4.90
2022-08-19T08:56:13.985Z,5.17
2022-08-19T08:58:55.320Z,5.90
2022-08-19T09:01:23.602Z,5.80
2022-08-19T09:03:53.585Z,5.77
2022-08-19T09:06:31.380Z,6.77
2022-08-19T09:09:11.858Z,6.07
2022-08-19T09:11:51.850Z,6.23
2022-08-19T09:14:51.841Z,6.57
2022-08-19T09:17:29.185Z,6.73
2022-08-19T09:20:01.921Z,7.33
2022-08-19T09:22:30.121Z,6.80
2022-08-19T09:24:59.712Z,7.10
2022-08-19T09:27:42.069Z,7.93
2022-08-19T09:30:20.302Z,6.73
2022-08-19T09:32:52.863Z,6.93
2022-08-19T09:35:24.270Z,6.60
2022-08-19T09:37:57.362Z,6.77
2022-08-19T09:40:30.140Z,7.23
2022-08-19T09:43:11.408Z,6.27
2022-08-19T09:45:42.231Z,5.97
2022-08-19T09:48:11.913Z,6.03
2022-08-19T09:50:51.979Z,5.83
2022-08-19T09:53:25.405Z,5.03
2022-08-19T09:55:57.235Z,4.70
2022-08-19T09:58:28.694Z,4.03
2022-08-19T10:00:57.393Z,5.10
2022-08-19T10:03:30.143Z,4.63
2022-08-19T10:06:01.067Z,5.20
2022-08-19T10:08:33.961Z,5.33
2022-08-19T10:11:28.497Z,4.90
2022-08-19T10:13:54.754Z,4.87
2022-08-19T10:16:30.028Z,5.10
2022-08-19T10:18:59.358Z,5.03
2022-08-19T10:21:29.781Z,4.93
2022-08-19T10:24:02.778Z,5.27
2022-08-19T10:26:35.554Z,5.90
2022-08-19T10:29:06.011Z,6.73
2022-08-19T10:32:01.139Z,6.53
2022-08-19T10:34:28.397Z,6.67
2022-08-19T10:37:00.493Z,5.63
2022-08-19T10:39:31.318Z,6.80
2022-08-19T10:42:01.663Z,6.03
2022-08-19T10:44:32.217Z,6.00
2022-08-19T10:47:01.611Z,5.80
2022-08-19T10:49:30.099Z,5.30
2022-08-19T10:52:19.035Z,6.90
2022-08-19T10:55:08.485Z,6.63
2022-08-19T10:58:01.368Z,5.60
2022-08-19T11:00:27.080Z,6.00
2022-08-19T11:02:55.241Z,6.03
2022-08-19T11:05:24.215Z,6.17
2022-08-19T11:07:53.206Z,6.30
2022-08-19T11:10:22.964Z,5.43
2022-08-19T11:12:55.850Z,6.27
2022-08-19T11:15:24.315Z,5.80
2022-08-19T11:17:55.376Z,6.50
2022-08-19T11:20:24.652Z,7.00
2022-08-19T11:22:54.573Z,6.80
2022-08-19T11:25:23.345Z,6.80
2022-08-19T11:27:53.265Z,6.70
2022-08-19T11:30:21.844Z,6.83
2022-08-19T11:32:50.506Z,7.40
2022-08-19T11:35:21.162Z,7.63
2022-08-19T11:37:49.347Z,6.33
2022-08-19T11:40:17.791Z,7.03
2022-08-19T11:42:58.192Z,7.93
2022-08-19T11:45:30.183Z,9.03
2022-08-19T11:47:58.429Z,8.93
2022-08-19T11:50:27.218Z,9.80
2022-08-19T11:52:56.841Z,11.10
2022-08-19T11:55:25.665Z,10.70
2022-08-19T11:57:53.995Z,10.43
2022-08-19T12:00:22.581Z,9.87
2022-08-19T12:02:52.107Z,10.87
2022-08-19T12:05:20.431Z,10.50
2022-08-19T12:07:48.602Z,9.27
2022-08-19T12:10:18.973Z,10.07
2022-08-19T12:12:56.402Z,10.27
2022-08-19T12:15:37.118Z,10.90
2022-08-19T12:18:07.425Z,10.20
2022-08-19T12:20:37.810Z,10.03
2022-08-19T12:23:06.444Z,10.80
2022-08-19T12:25:35.467Z,10.70
2022-08-19T12:28:04.605Z,10.40
2022-08-19T12:30:33.228Z,11.10
2022-08-19T12:33:01.389Z,10.77
2022-08-19T12:35:31.542Z,11.20
2022-08-19T12:38:00.985Z,11.53
2022-08-19T12:40:29.397Z,11.60
2022-08-19T12:42:57.580Z,9.23
2022-08-19T12:45:25.779Z,9.57
2022-08-19T12:47:55.345Z,9.20
2022-08-19T12:50:23.882Z,9.30
2022-08-19T12:52:53.659Z,8.87
2022-08-19T12:55:21.983Z,9.90
2022-08-19T12:57:51.463Z,10.47
2022-08-19T13:00:22.829Z,10.83
2022-08-19T13:02:53.748Z,9.40
2022-08-19T13:05:23.838Z,9.10
2022-08-19T13:07:56.826Z,9.20
2022-08-19T13:10:28.809Z,10.30
2022-08-19T13:12:57.847Z,9.83
2022-08-19T13:15:26.309Z,9.70
2022-08-19T13:17:56.970Z,10.50
2022-08-19T13:20:26.287Z,9.10
2022-08-19T13:22:58.152Z,9.53
2022-08-19T13:25:27.588Z,7.93
2022-08-19T13:27:56.259Z,8.03
2022-08-19T13:30:42.079Z,8.20
2022-08-19T13:33:15.963Z,7.83
2022-08-19T13:35:48.852Z,8.10
2022-08-19T13:38:21.580Z,8.13
2022-08-19T13:40:51.503Z,8.10
2022-08-19T13:43:23.821Z,8.83
2022-08-19T13:45:57.451Z,9.30
2022-08-19T13:48:27.997Z,9.40
2022-08-19T13:50:56.789Z,10.10
2022-08-19T13:53:26.851Z,9.53
2022-08-19T13:55:55.470Z,9.77
2022-08-19T13:58:24.368Z,10.00
2022-08-19T14:00:52.663Z,9.53
2022-08-19T14:03:20.815Z,9.60
2022-08-19T14:05:49.037Z,9.90
2022-08-19T14:08:17.255Z,10.27
2022-08-19T14:10:47.338Z,10.20
2022-08-19T14:13:18.301Z,10.40
2022-08-19T14:15:47.067Z,9.07
2022-08-19T14:18:15.522Z,8.97
2022-08-19T14:20:43.722Z,9.80
2022-08-19T14:23:13.360Z,10.30
2022-08-19T14:25:41.648Z,9.37
2022-08-19T14:28:11.232Z,10.47
2022-08-19T14:30:39.937Z,11.70
2022-08-19T14:33:09.517Z,10.50
2022-08-19T14:35:37.786Z,11.57
2022-08-19T14:38:07.087Z,10.33
2022-08-19T14:40:35.838Z,10.87
2022-08-19T14:43:06.557Z,13.00
2022-08-19T14:45:38.503Z,11.00
2022-08-19T14:48:19.381Z,10.70
2022-08-19T14:50:48.792Z,11.20
2022-08-19T14:53:18.813Z,11.70
2022-08-19T14:55:47.750Z,12.00
2022-08-19T14:58:29.231Z,11.10
2022-08-19T15:01:01.150Z,10.50
2022-08-19T15:03:30.118Z,11.20
2022-08-19T15:05:59.100Z,11.33
2022-08-19T15:08:28.395Z,12.20
2022-08-19T15:10:56.652Z,12.80
2022-08-19T15:13:26.039Z,13.33
2022-08-19T15:15:54.676Z,12.57
2022-08-19T15:18:24.631Z,14.07
2022-08-19T15:20:52.976Z,14.30
2022-08-19T15:23:22.755Z,14.90
2022-08-19T15:25:55.845Z,16.20
2022-08-19T15:28:26.082Z,17.27
2022-08-19T15:30:54.687Z,15.67
2022-08-19T15:33:24.227Z,17.60
2022-08-19T15:35:52.654Z,15.73
2022-08-19T15:38:22.158Z,17.63
2022-08-19T15:40:51.166Z,17.80
2022-08-19T15:43:21.805Z,19.07
2022-08-19T15:45:50.308Z,19.40
2022-08-19T15:48:18.476Z,17.90
2022-08-19T15:50:48.191Z,18.83
2022-08-19T15:53:17.132Z,18.97
2022-08-19T15:55:48.653Z,18.00
2022-08-19T15:58:34.918Z,18.27
2022-08-19T16:01:27.012Z,18.77
2022-08-19T16:04:15.663Z,17.37
2022-08-19T16:06:47.745Z,17.13
2022-08-19T16:09:17.241Z,19.17
2022-08-19T16:11:56.566Z,19.13
2022-08-19T16:14:25.883Z,18.50
2022-08-19T16:16:54.972Z,19.27
2022-08-19T16:19:23.563Z,17.77
2022-08-19T16:21:55.703Z,19.40
2022-08-19T16:24:27.747Z,21.67
2022-08-19T16:26:56.707Z,20.20
2022-08-19T16:29:33.886Z,21.50
2022-08-19T16:32:03.601Z,23.00
2022-08-19T16:34:32.210Z,23.53
2022-08-19T16:37:03.272Z,22.53
2022-08-19T16:39:31.650Z,23.43
2022-08-19T16:42:01.017Z,24.63
2022-08-19T16:44:30.195Z,22.23
2022-08-19T16:46:59.708Z,24.73
2022-08-19T16:49:54.289Z,24.13
2022-08-19T16:52:18.723Z,21.47
2022-08-19T16:54:47.982Z,23.27
2022-08-19T16:57:16.574Z,23.47
2022-08-19T16:59:49.229Z,24.70
2022-08-19T17:02:18.403Z,24.40
2022-08-19T17:04:57.301Z,24.00
2022-08-19T17:07:28.843Z,25.85
2022-08-19T17:09:57.665Z,23.80
2022-08-19T17:12:30.203Z,22.77
2022-08-19T17:15:00.951Z,21.70
2022-08-19T17:17:29.809Z,21.63
2022-08-19T17:19:59.205Z,21.50
2022-08-19T17:22:29.761Z,24.50
2022-08-19T17:24:58.708Z,23.30
2022-08-19T17:27:32.009Z,23.73
2022-08-19T17:30:02.911Z,25.30
2022-08-19T17:32:35.122Z,25.33
2022-08-19T17:35:04.771Z,24.13
2022-08-19T17:37:35.038Z,27.50
2022-08-19T17:40:04.028Z,27.83
2022-08-19T17:42:32.460Z,25.57
2022-08-19T17:45:00.852Z,28.90
2022-08-19T17:47:29.497Z,30.03
2022-08-19T17:49:57.811Z,28.10
2022-08-19T17:52:26.187Z,26.80
2022-08-19T17:54:56.462Z,28.20
2022-08-19T17:57:24.629Z,26.77
2022-08-19T17:59:53.097Z,27.53
2022-08-19T18:02:22.002Z,26.23
2022-08-19T18:04:50.639Z,23.63
2022-08-19T18:07:21.523Z,25.53
2022-08-19T18:09:52.018Z,26.50
2022-08-19T18:12:26.554Z,25.40
2022-08-19T18:14:55.129Z,23.87
2022-08-19T18:17:24.496Z,23.67
2022-08-19T18:19:52.708Z,24.93
2022-08-19T18:22:27.371Z,25.83
2022-08-19T18:24:56.419Z,26.10
2022-08-19T18:27:27.066Z,28.40
2022-08-19T18:29:59.623Z,28.40
2022-08-19T18:32:32.381Z,28.00
2022-08-19T18:35:02.516Z,29.17
2022-08-19T18:37:30.730Z,27.50
2022-08-19T18:40:16.585Z,29.20
2022-08-19T18:43:18.799Z,30.30
2022-08-19T18:46:07.189Z,26.90
2022-08-19T18:48:53.374Z,30.20
2022-08-19T18:51:24.197Z,28.57
2022-08-19T18:53:57.289Z,28.60
2022-08-19T18:56:28.910Z,25.70
2022-08-19T18:58:58.768Z,29.40
2022-08-19T19:01:31.406Z,28.60
2022-08-19T19:04:02.741Z,26.67
2022-08-19T19:06:35.869Z,25.73
2022-08-19T19:09:04.421Z,25.70
2022-08-19T19:11:35.386Z,26.63
2022-08-19T19:14:13.879Z,24.83
2022-08-19T19:16:51.456Z,23.50
2022-08-19T19:19:20.479Z,23.80
2022-08-19T19:21:53.162Z,24.63
2022-08-19T19:24:23.640Z,23.50
2022-08-19T19:26:53.630Z,24.97
2022-08-19T19:29:23.413Z,25.50
2022-08-19T19:31:52.992Z,25.80
2022-08-19T19:34:28.839Z,24.77
2022-08-19T19:36:58.555Z,27.03
2022-08-19T19:39:44.833Z,27.67
2022-08-19T19:42:20.349Z,30.73
2022-08-19T19:44:52.107Z,31.77
2022-08-19T19:47:28.036Z,27.33
2022-08-19T19:50:15.291Z,29.97
2022-08-19T19:52:46.630Z,28.50
2022-08-19T19:55:18.403Z,31.90
2022-08-19T19:57:47.151Z,30.97
2022-08-19T20:00:19.105Z,30.40
2022-08-19T20:02:50.218Z,33.40
2022-08-19T20:05:21.409Z,32.37
2022-08-19T20:08:09.603Z,34.00
2022-08-19T20:10:38.487Z,33.53
2022-08-19T20:13:07.847Z,34.90
2022-08-19T20:15:42.418Z,35.50
2022-08-19T20:18:11.456Z,34.60
2022-08-19T20:20:40.316Z,34.03
2022-08-19T20:23:09.194Z,36.43
2022-08-19T20:25:39.464Z,42.00
2022-08-19T20:28:07.648Z,38.13
2022-08-19T20:30:38.476Z,36.80
2022-08-19T20:33:13.801Z,37.50
2022-08-19T20:35:42.753Z,40.30
2022-08-19T20:38:11.008Z,40.63
2022-08-19T20:40:40.181Z,39.00
2022-08-19T20:43:13.518Z,42.00
2022-08-19T20:45:43.615Z,40.37
2022-08-19T20:48:12.530Z,41.67
2022-08-19T20:50:40.859Z,42.00
2022-08-19T20:53:13.746Z,39.30
2022-08-19T20:55:45.471Z,43.10
2022-08-19T20:58:14.357Z,40.63
2022-08-19T21:00:45.583Z,39.03
2022-08-19T21:03:17.214Z,40.77
2022-08-19T21:05:46.795Z,41.00
2022-08-19T21:08:15.665Z,38.77
2022-08-19T21:10:44.686Z,40.27
2022-08-19T21:13:13.003Z,35.63
2022-08-19T21:15:43.294Z,37.33
2022-08-19T21:18:14.485Z,33.80
2022-08-19T21:20:43.718Z,35.00
2022-08-19T21:23:15.963Z,35.73
2022-08-19T21:25:54.175Z,35.40
2022-08-19T21:28:35.744Z,33.00
2022-08-19T21:31:05.390Z,31.73
2022-08-19T21:33:35.145Z,33.30
2022-08-19T21:36:03.833Z,37.40
2022-08-19T21:38:32.355Z,33.63
2022-08-19T21:41:00.616Z,32.43
2022-08-19T21:43:34.576Z,32.90
2022-08-19T21:46:02.874Z,34.40
2022-08-19T21:48:31.053Z,36.63
2022-08-19T21:51:00.709Z,32.40
2022-08-19T21:53:34.003Z,34.87
2022-08-19T21:56:03.089Z,35.80
2022-08-19T21:58:31.419Z,31.57
2022-08-19T22:01:00.225Z,35.37
2022-08-19T22:03:28.709Z,34.00
2022-08-19T22:05:58.618Z,38.90
2022-08-19T22:08:28.318Z,39.57
2022-08-19T22:10:56.480Z,38.70
2022-08-19T22:13:25.003Z,43.27
2022-08-19T22:15:55.043Z,41.93
2022-08-19T22:18:24.302Z,43.13
2022-08-19T22:20:52.431Z,46.30
2022-08-19T22:23:20.887Z,45.53
2022-08-19T22:25:50.417Z,46.20
2022-08-19T22:28:27.882Z,45.27
2022-08-19T22:30:57.105Z,42.40
2022-08-19T22:33:27.778Z,49.73
2022-08-19T22:35:56.000Z,53.27
2022-08-19T22:38:25.056Z,45.10
2022-08-19T22:40:56.459Z,42.80
2022-08-19T22:43:28.551Z,44.90
2022-08-19T22:45:58.105Z,39.63
2022-08-19T22:48:29.020Z,45.70
2022-08-19T22:51:15.375Z,47.53
2022-08-19T22:53:46.624Z,41.03
2022-08-19T22:56:18.704Z,47.07
2022-08-19T22:58:49.998Z,38.53
2022-08-19T23:01:27.286Z,40.50
2022-08-19T23:03:58.485Z,42.40
2022-08-19T23:06:33.837Z,35.40
2022-08-19T23:09:05.040Z,40.73
2022-08-19T23:11:41.724Z,36.13
2022-08-19T23:14:12.584Z,37.17
2022-08-19T23:16:41.959Z,33.73
2022-08-19T23:19:10.723Z,39.20
2022-08-19T23:21:39.498Z,34.87
2022-08-19T23:24:08.193Z,34.50
2022-08-19T23:26:37.878Z,32.53
2022-08-19T23:29:24.182Z,34.97
2022-08-19T23:31:52.413Z,33.70
2022-08-19T23:34:20.588Z,29.50
2022-08-19T23:36:50.698Z,32.67
2022-08-19T23:39:19.320Z,29.73
2022-08-19T23:41:49.043Z,30.07
2022-08-19T23:44:17.440Z,32.13
2022-08-19T23:46:55.067Z,29.93
2022-08-19T23:49:25.769Z,27.40
2022-08-19T23:51:55.065Z,29.50
2022-08-19T23:54:23.556Z,28.57
2022-08-19T23:57:14.400Z,27.30
2022-08-19T23:59:45.300Z,30.83
